createdAt,value
2022-08-11T00:01:26.111Z,101248.94
2022-08-11T00:04:11.636Z,101233.00
2022-08-11T00:07:03.158Z,101179.63
2022-08-11T00:09:49.847Z,101243.91
2022-08-11T00:12:37.949Z,101240.47
2022-08-11T00:15:39.628Z,101205.00
2022-08-11T00:18:40.263Z,101234.59
2022-08-11T00:22:01.974Z,101233.47
2022-08-11T00:24:53.599Z,101230.38
2022-08-11T00:27:42.868Z,101236.75
2022-08-11T00:30:39.401Z,101237.88
2022-08-11T00:33:44.409Z,101224.50
2022-08-11T00:36:53.505Z,101235.75
2022-08-11T00:39:46.815Z,101239.66
2022-08-11T00:42:58.594Z,101234.44
2022-08-11T00:46:12.506Z,101238.03
2022-08-11T00:49:01.802Z,101237.06
2022-08-11T00:52:22.759Z,101235.59
2022-08-11T00:55:18.070Z,101231.50
2022-08-11T00:58:06.344Z,101234.41
2022-08-11T01:01:18.604Z,101201.34
2022-08-11T01:04:23.740Z,101231.28
2022-08-11T01:08:01.582Z,101233.56
2022-08-11T01:11:16.630Z,101225.06
2022-08-11T01:14:34.148Z,101224.59
2022-08-11T01:17:36.514Z,101228.00
2022-08-11T01:20:53.155Z,101190.91
2022-08-11T01:24:04.113Z,101223.06
2022-08-11T01:27:19.084Z,101236.09
2022-08-11T01:30:27.610Z,101234.59
2022-08-11T01:33:52.278Z,101229.72
2022-08-11T01:36:53.416Z,101224.84
2022-08-11T01:39:56.374Z,101198.88
2022-08-11T01:43:40.571Z,101235.59
2022-08-11T01:46:48.138Z,101239.91
2022-08-11T01:50:05.965Z,101219.53
2022-08-11T01:53:11.255Z,101227.00
2022-08-11T01:56:43.263Z,101229.78
2022-08-11T01:59:35.388Z,101224.97
2022-08-11T02:02:44.990Z,101222.53
2022-08-11T02:06:01.314Z,101218.59
2022-08-11T02:09:00.027Z,101219.44
2022-08-11T02:11:50.701Z,101219.03
2022-08-11T02:15:04.987Z,101224.81
2022-08-11T02:18:07.484Z,101219.44
2022-08-11T02:21:22.006Z,101222.16
2022-08-11T02:24:17.404Z,101219.34
2022-08-11T02:27:19.280Z,101223.22
2022-08-11T02:30:18.042Z,101217.75
2022-08-11T02:33:25.611Z,101218.31
2022-08-11T02:36:34.593Z,101208.16
2022-08-11T02:39:22.144Z,101226.50
2022-08-11T02:42:42.387Z,101196.44
2022-08-11T02:45:42.174Z,101228.91
2022-08-11T02:49:03.029Z,101216.28
2022-08-11T02:51:55.015Z,101230.41
2022-08-11T02:55:07.570Z,101217.53
2022-08-11T03:01:29.082Z,101185.13
2022-08-11T03:04:51.856Z,101231.56
2022-08-11T03:08:15.461Z,101231.63
2022-08-11T03:11:37.416Z,101233.16
2022-08-11T03:15:32.138Z,101231.31
2022-08-11T03:18:25.532Z,101242.75
2022-08-11T03:22:01.394Z,101214.56
2022-08-11T03:24:50.147Z,101240.81
2022-08-11T03:28:19.838Z,101240.38
2022-08-11T03:31:25.267Z,101242.66
2022-08-11T03:34:20.556Z,101242.19
2022-08-11T03:37:39.302Z,101240.16
2022-08-11T03:41:02.800Z,101239.56
2022-08-11T03:44:28.707Z,101244.16
2022-08-11T03:47:28.371Z,101245.69
2022-08-11T03:50:35.392Z,101241.25
2022-08-11T03:53:56.749Z,101246.19
2022-08-11T03:57:31.667Z,101242.19
2022-08-11T04:00:50.409Z,101252.50
2022-08-11T04:03:58.726Z,101248.03
2022-08-11T04:07:02.492Z,101247.91
2022-08-11T04:10:13.280Z,101246.78
2022-08-11T04:13:17.487Z,101256.44
2022-08-11T04:16:15.976Z,101246.63
2022-08-11T04:19:40.138Z,101240.31
2022-08-11T04:22:36.789Z,101248.94
2022-08-11T04:25:57.715Z,101199.81
2022-08-11T04:28:50.142Z,101247.66
2022-08-11T04:31:50.363Z,101251.25
2022-08-11T04:34:41.569Z,101251.06
2022-08-11T04:37:34.266Z,101245.81
2022-08-11T04:40:43.561Z,101249.88
2022-08-11T04:44:05.654Z,101252.06
2022-08-11T04:47:12.015Z,101253.38
2022-08-11T04:50:43.269Z,101256.56
2022-08-11T04:54:28.426Z,101254.44
2022-08-11T04:57:41.690Z,101259.81
2022-08-11T05:00:50.092Z,101254.56
2022-08-11T05:04:33.084Z,101261.16
2022-08-11T05:07:49.678Z,101237.31
2022-08-11T05:10:56.998Z,101266.59
2022-08-11T05:14:07.570Z,101272.41
2022-08-11T05:17:18.600Z,101269.19
2022-08-11T05:20:31.523Z,101235.59
2022-08-11T05:23:41.639Z,101269.16
2022-08-11T05:26:53.390Z,101270.22
2022-08-11T05:30:06.166Z,101242.25
2022-08-11T05:33:32.030Z,101272.06
2022-08-11T05:36:45.299Z,101268.13
2022-08-11T05:39:57.110Z,101277.00
2022-08-11T05:43:08.288Z,101273.09
2022-08-11T05:46:25.823Z,101273.91
2022-08-11T05:49:32.971Z,101256.03
2022-08-11T05:52:43.984Z,101265.81
2022-08-11T05:56:22.275Z,101255.88
2022-08-11T05:59:20.530Z,101259.75
2022-08-11T06:02:11.321Z,101235.25
2022-08-11T06:05:06.355Z,101266.66
2022-08-11T06:08:02.811Z,101259.44
2022-08-11T06:11:07.068Z,101266.84
2022-08-11T06:14:04.348Z,101247.31
2022-08-11T06:16:56.546Z,101269.06
2022-08-11T06:19:51.210Z,101269.28
2022-08-11T06:22:56.231Z,101264.44
2022-08-11T06:25:47.621Z,101270.06
2022-08-11T06:28:41.545Z,101277.50
2022-08-11T06:31:36.263Z,101275.59
2022-08-11T06:34:40.073Z,101272.28
2022-08-11T06:37:59.140Z,101273.16
2022-08-11T06:41:21.426Z,101260.75
2022-08-11T06:44:15.682Z,101269.44
2022-08-11T06:47:10.452Z,101272.22
2022-08-11T06:50:19.560Z,101272.38
2022-08-11T06:53:17.634Z,101265.06
2022-08-11T06:56:28.436Z,101260.59
2022-08-11T06:59:47.105Z,101261.59
2022-08-11T07:03:01.713Z,101263.22
2022-08-11T07:06:12.509Z,101253.34
2022-08-11T07:10:26.847Z,101264.41
2022-08-11T07:13:44.404Z,101246.84
2022-08-11T07:16:35.666Z,101244.41
2022-08-11T07:19:47.915Z,101259.72
2022-08-11T07:22:55.306Z,101223.81
2022-08-11T07:26:12.873Z,101255.91
2022-08-11T07:29:14.292Z,101259.41
2022-08-11T07:32:06.443Z,101251.50
2022-08-11T07:35:14.219Z,101254.97
2022-08-11T07:38:08.375Z,101266.22
2022-08-11T07:41:04.357Z,101264.34
2022-08-11T07:44:11.656Z,101254.13
2022-08-11T07:47:20.287Z,101247.03
2022-08-11T07:50:28.218Z,101232.69
2022-08-11T07:53:23.593Z,101254.56
2022-08-11T07:56:47.990Z,101254.16
2022-08-11T08:00:03.395Z,101252.59
2022-08-11T08:03:19.343Z,101263.09
2022-08-11T08:06:35.779Z,101250.25
2022-08-11T08:09:43.783Z,101222.97
2022-08-11T08:12:54.057Z,101253.25
2022-08-11T08:16:00.177Z,101253.66
2022-08-11T08:18:50.107Z,101255.28
2022-08-11T08:21:40.777Z,101237.19
2022-08-11T08:24:36.853Z,101234.44
2022-08-11T08:27:27.728Z,101246.06
2022-08-11T08:30:37.152Z,101246.47
2022-08-11T08:33:30.191Z,101241.25
2022-08-11T08:36:21.349Z,101242.84
2022-08-11T08:39:09.841Z,101242.16
2022-08-11T08:42:00.166Z,101219.25
2022-08-11T08:45:04.170Z,101246.50
2022-08-11T08:48:01.961Z,101241.97
2022-08-11T08:51:21.904Z,101236.41
2022-08-11T08:54:35.114Z,101242.53
2022-08-11T08:57:32.116Z,101239.69
2022-08-11T09:00:41.038Z,101240.38
2022-08-11T09:04:02.991Z,101240.88
2022-08-11T09:06:43.019Z,101242.16
2022-08-11T09:09:35.078Z,101224.53
2022-08-11T09:12:36.304Z,101238.19
2022-08-11T09:15:26.619Z,101214.78
2022-08-11T09:18:19.665Z,101224.00
2022-08-11T09:21:13.854Z,101238.94
2022-08-11T09:24:26.584Z,101231.78
2022-08-11T09:27:14.578Z,101234.25
2022-08-11T09:30:17.066Z,101233.44
2022-08-11T09:33:07.005Z,101229.03
2022-08-11T09:35:54.894Z,101219.78
2022-08-11T09:39:27.317Z,101233.44
2022-08-11T09:42:45.627Z,101222.94
2022-08-11T09:45:39.889Z,101219.78
2022-08-11T09:48:45.530Z,101184.38
2022-08-11T09:51:34.106Z,101221.78
2022-08-11T09:54:22.105Z,101210.84
2022-08-11T09:57:31.061Z,101211.69
2022-08-11T10:00:18.988Z,101208.34
2022-08-11T10:03:22.030Z,101206.34
2022-08-11T10:06:34.254Z,101202.78
2022-08-11T10:09:21.645Z,101189.69
2022-08-11T10:12:43.198Z,101204.63
2022-08-11T10:15:59.768Z,101197.47
2022-08-11T10:18:53.702Z,101192.22
2022-08-11T10:22:07.011Z,101190.13
2022-08-11T10:25:20.032Z,101189.84
2022-08-11T10:28:32.715Z,101156.50
2022-08-11T10:31:45.128Z,101182.63
2022-08-11T10:34:54.616Z,101188.66
2022-08-11T10:38:07.753Z,101175.38
2022-08-11T10:41:17.725Z,101178.19
2022-08-11T10:44:10.033Z,101154.50
2022-08-11T10:47:16.122Z,101170.59
2022-08-11T10:50:29.388Z,101169.81
2022-08-11T10:53:45.393Z,101166.66
2022-08-11T10:57:18.399Z,101151.81
2022-08-11T11:00:15.746Z,101150.22
2022-08-11T11:03:23.055Z,101155.84
2022-08-11T11:06:29.186Z,101149.78
2022-08-11T11:09:33.664Z,101142.13
2022-08-11T11:12:55.951Z,101143.38
2022-08-11T11:16:06.584Z,101119.69
2022-08-11T11:19:05.786Z,101132.53
2022-08-11T11:22:19.185Z,101136.94
2022-08-11T11:25:43.518Z,101134.56
2022-08-11T11:29:18.740Z,101132.53
2022-08-11T11:32:23.118Z,101131.72
2022-08-11T11:35:26.332Z,101125.25
2022-08-11T11:38:17.253Z,101114.41
2022-08-11T11:41:26.287Z,101127.28
2022-08-11T11:44:17.081Z,101115.59
2022-08-11T11:47:16.117Z,101142.09
2022-08-11T11:50:14.677Z,101119.13
2022-08-11T11:53:15.466Z,101136.88
2022-08-11T11:56:10.411Z,101133.66
2022-08-11T11:59:28.298Z,101122.75
2022-08-11T12:02:19.875Z,101120.72
2022-08-11T12:05:17.582Z,101111.06
2022-08-11T12:08:15.879Z,101109.84
2022-08-11T12:11:25.889Z,101105.41
2022-08-11T12:14:18.840Z,101102.66
2022-08-11T12:17:10.631Z,101110.78
2022-08-11T12:20:04.841Z,101097.91
2022-08-11T12:23:35.010Z,101042.81
2022-08-11T12:26:43.315Z,101101.84
2022-08-11T12:29:50.067Z,101086.88
2022-08-11T12:32:53.239Z,101089.66
2022-08-11T12:35:42.788Z,101083.63
2022-08-11T12:38:51.510Z,101056.78
2022-08-11T12:42:02.145Z,101086.16
2022-08-11T12:45:21.943Z,101080.16
2022-08-11T12:48:58.412Z,101074.13
2022-08-11T12:52:12.068Z,101077.25
2022-08-11T12:55:13.682Z,101051.53
2022-08-11T12:58:18.334Z,101057.44
2022-08-11T13:01:27.714Z,101052.19
2022-08-11T13:04:34.758Z,101046.56
2022-08-11T13:07:51.007Z,101024.91
2022-08-11T13:10:54.847Z,101044.97
2022-08-11T13:13:53.587Z,101011.25
2022-08-11T13:17:01.389Z,101026.22
2022-08-11T13:19:50.308Z,101024.69
2022-08-11T13:22:39.356Z,101027.91
2022-08-11T13:25:31.691Z,101009.47
2022-08-11T13:28:21.705Z,101004.66
2022-08-11T13:31:14.641Z,101015.88
2022-08-11T13:37:00.787Z,101000.22
2022-08-11T13:39:53.174Z,101000.22
2022-08-11T13:42:41.333Z,101004.69
2022-08-11T13:45:27.963Z,100996.25
2022-08-11T13:48:17.840Z,100992.28
2022-08-11T13:51:22.836Z,100974.22
2022-08-11T13:54:23.511Z,100985.47
2022-08-11T13:58:06.710Z,100980.22
2022-08-11T14:00:28.056Z,100959.72
2022-08-11T14:03:18.798Z,100962.09
2022-08-11T14:06:05.702Z,100980.56
2022-08-11T14:08:55.592Z,100961.56
2022-08-11T14:12:21.818Z,100978.47
2022-08-11T14:15:35.633Z,100982.88
2022-08-11T14:18:32.005Z,100978.47
2022-08-11T14:21:40.940Z,100978.53
2022-08-11T14:24:30.378Z,100964.09
2022-08-11T14:28:29.814Z,100969.38
2022-08-11T14:30:43.583Z,100977.00
2022-08-11T14:34:00.409Z,100979.44
2022-08-11T14:36:45.603Z,100978.66
2022-08-11T14:39:41.524Z,100935.69
2022-08-11T14:42:51.220Z,100978.25
2022-08-11T14:45:58.646Z,100973.00
2022-08-11T14:48:50.737Z,100972.56
2022-08-11T14:51:41.754Z,100974.16
2022-08-11T14:54:50.325Z,100972.94
2022-08-11T14:57:55.578Z,100976.13
2022-08-11T15:00:45.471Z,100978.44
2022-08-11T15:03:33.903Z,100925.41
2022-08-11T15:06:20.750Z,100972.81
2022-08-11T15:09:09.360Z,100965.59
2022-08-11T15:12:32.604Z,100945.13
2022-08-11T15:15:39.369Z,100964.84
2022-08-11T15:18:32.081Z,100959.69
2022-08-11T15:21:36.571Z,100961.72
2022-08-11T15:24:25.148Z,100955.31
2022-08-11T15:27:35.575Z,100957.31
2022-08-11T15:30:42.842Z,100951.28
2022-08-11T15:33:53.373Z,100964.13
2022-08-11T15:37:00.122Z,100966.13
2022-08-11T15:40:31.194Z,100964.09
2022-08-11T15:43:40.578Z,100964.91
2022-08-11T15:46:46.237Z,100960.50
2022-08-11T15:50:11.422Z,100970.06
2022-08-11T15:52:57.314Z,100957.53
2022-08-11T15:55:45.877Z,100960.34
2022-08-11T15:59:10.779Z,100960.31
2022-08-11T16:02:20.685Z,100961.06
2022-08-11T16:05:11.486Z,100952.66
2022-08-11T16:08:00.357Z,100959.50
2022-08-11T16:10:48.072Z,100955.50
2022-08-11T16:13:42.264Z,100944.25
2022-08-11T16:16:30.676Z,100953.47
2022-08-11T16:19:20.582Z,100934.16
2022-08-11T16:22:09.793Z,100943.84
2022-08-11T16:26:30.362Z,100936.25
2022-08-11T16:28:08.090Z,100942.25
2022-08-11T16:30:55.104Z,100953.47
2022-08-11T16:33:51.301Z,100903.25
2022-08-11T16:36:57.766Z,100946.66
2022-08-11T16:39:48.342Z,100940.97
2022-08-11T16:43:05.289Z,100924.84
2022-08-11T16:46:22.614Z,100940.53
2022-08-11T16:49:14.702Z,100944.50
2022-08-11T16:52:08.127Z,100938.50
2022-08-11T16:54:54.698Z,100933.59
2022-08-11T16:58:00.112Z,100945.59
2022-08-11T17:00:48.598Z,100947.22
2022-08-11T17:03:53.775Z,100945.97
2022-08-11T17:07:03.712Z,100951.97
2022-08-11T17:10:52.476Z,100932.69
2022-08-11T17:13:47.971Z,100930.22
2022-08-11T17:16:37.920Z,100946.25
2022-08-11T17:20:40.962Z,100939.38
2022-08-11T17:22:56.068Z,100942.97
2022-08-11T17:25:59.865Z,100937.31
2022-08-11T17:28:56.779Z,100944.06
2022-08-11T17:32:03.971Z,100944.03
2022-08-11T17:35:21.068Z,100913.41
2022-08-11T17:38:15.490Z,100929.91
2022-08-11T17:41:23.614Z,100940.63
2022-08-11T17:44:30.354Z,100936.16
2022-08-11T17:47:38.923Z,100936.88
2022-08-11T17:50:31.944Z,100931.59
2022-08-11T17:53:38.713Z,100944.31
2022-08-11T17:56:46.138Z,100938.63
2022-08-11T17:59:51.587Z,100941.78
2022-08-11T18:03:02.723Z,100936.13
2022-08-11T18:05:49.846Z,100918.41
2022-08-11T18:08:59.718Z,100927.94
2022-08-11T18:12:11.648Z,100929.41
2022-08-11T18:15:20.227Z,100942.91
2022-08-11T18:18:28.051Z,100941.97
2022-08-11T18:25:30.111Z,100939.59
2022-08-11T18:28:56.281Z,100943.91
2022-08-11T18:32:09.826Z,100948.66
2022-08-11T18:35:18.999Z,100951.44
2022-08-11T18:38:35.611Z,100951.69
2022-08-11T18:41:48.033Z,100946.84
2022-08-11T18:44:57.780Z,100955.22
2022-08-11T18:48:11.514Z,100958.38
2022-08-11T18:51:29.800Z,100963.84
2022-08-11T18:54:42.618Z,100962.56
2022-08-11T18:57:58.142Z,100966.13
2022-08-11T19:01:07.312Z,100961.91
2022-08-11T19:04:19.033Z,100966.75
2022-08-11T19:07:25.338Z,100959.44
2022-08-11T19:10:31.786Z,100954.94
2022-08-11T19:13:43.331Z,100956.50
2022-08-11T19:16:54.121Z,100964.06
2022-08-11T19:20:00.164Z,100965.25
2022-08-11T19:23:07.116Z,100969.22
2022-08-11T19:26:12.879Z,100955.94
2022-08-11T19:30:07.090Z,100961.16
2022-08-11T19:32:43.819Z,100963.88
2022-08-11T19:35:49.337Z,100979.84
2022-08-11T19:38:55.813Z,100984.84
2022-08-11T19:42:01.136Z,100996.72
2022-08-11T19:45:08.145Z,100960.03
2022-08-11T19:48:32.101Z,100986.16
2022-08-11T19:51:38.918Z,100985.28
2022-08-11T19:54:51.986Z,100980.81
2022-08-11T19:57:57.876Z,100990.66
2022-08-11T20:04:59.643Z,100993.28
2022-08-11T20:11:57.620Z,100995.50
2022-08-11T20:15:10.156Z,100972.13
2022-08-11T20:18:43.735Z,100983.75
2022-08-11T20:21:48.140Z,101007.78
2022-08-11T20:24:54.902Z,100996.72
2022-08-11T20:28:03.185Z,101010.28
2022-08-11T20:31:20.083Z,101017.03
2022-08-11T20:34:32.794Z,101017.72
2022-08-11T20:37:41.003Z,101009.53
2022-08-11T20:40:49.171Z,101008.56
2022-08-11T20:44:09.115Z,101011.78
2022-08-11T20:47:16.053Z,101017.72
2022-08-11T20:50:21.927Z,101028.22
2022-08-11T20:53:28.091Z,101020.22
2022-08-11T20:56:34.081Z,101027.81
2022-08-11T20:59:50.161Z,101034.16
2022-08-11T21:03:04.153Z,101029.84
2022-08-11T21:06:11.216Z,101010.38
2022-08-11T21:09:19.639Z,101013.00
2022-08-11T21:12:25.504Z,101019.50
2022-08-11T21:15:47.605Z,100995.88
2022-08-11T21:19:03.496Z,101026.44
2022-08-11T21:22:10.233Z,101028.06
2022-08-11T21:25:16.888Z,101005.09
2022-08-11T21:28:26.932Z,101028.59
2022-08-11T21:31:32.517Z,101030.38
2022-08-11T21:34:39.196Z,101010.69
2022-08-11T21:37:46.519Z,101023.44
2022-08-11T21:40:57.797Z,101032.81
2022-08-11T21:44:02.838Z,101000.38
2022-08-11T21:47:08.504Z,101017.22
2022-08-11T21:50:13.360Z,100995.78
2022-08-11T21:53:19.607Z,100994.78
2022-08-11T21:56:27.577Z,101017.41
2022-08-11T21:59:41.615Z,101020.75
2022-08-11T22:02:53.484Z,101013.91
2022-08-11T22:06:02.479Z,101001.69
2022-08-11T22:09:07.237Z,101003.94
2022-08-11T22:12:33.423Z,100992.69
2022-08-11T22:15:38.829Z,101008.16
2022-08-11T22:18:43.968Z,100975.44
2022-08-11T22:22:02.396Z,101014.91
2022-08-11T22:25:16.633Z,100982.19
2022-08-11T22:28:25.759Z,101009.28
2022-08-11T22:31:31.128Z,100977.72
2022-08-11T22:34:44.762Z,100997.59
2022-08-11T22:37:58.822Z,100991.88
2022-08-11T22:41:03.374Z,100974.09
2022-08-11T22:44:07.729Z,100981.06
2022-08-11T22:47:19.587Z,100999.81
2022-08-11T22:50:26.604Z,101013.34
2022-08-11T22:53:57.931Z,101014.63
2022-08-11T22:56:59.427Z,100984.97
2022-08-11T23:00:05.100Z,101001.59
2022-08-11T23:03:10.273Z,100999.06
2022-08-11T23:06:40.125Z,100971.53
2022-08-11T23:09:44.740Z,101027.31
2022-08-11T23:12:51.780Z,100998.69
2022-08-11T23:15:57.644Z,100987.75
2022-08-11T23:19:03.572Z,101015.75
2022-08-11T23:22:10.552Z,101017.47
2022-08-11T23:25:17.785Z,101014.94
2022-08-11T23:28:24.972Z,101006.88
2022-08-11T23:31:50.314Z,100990.75
2022-08-11T23:35:37.065Z,101009.84
2022-08-11T23:38:23.887Z,101022.03
2022-08-11T23:41:29.970Z,101013.34
2022-08-11T23:44:34.756Z,101001.53
2022-08-11T23:47:50.916Z,101010.28
2022-08-11T23:50:56.262Z,100960.25
2022-08-11T23:54:00.783Z,101013.34
2022-08-11T23:57:13.864Z,101011.25
